sensor_id;sensor_type;location;lat;lon;timestamp;P1;durP1;ratioP1;P2;durP2;ratioP2
30553;SDS011;17335;50.720;7.452;2023-04-24T00:00:49;0.60;;;0.60;;
30553;SDS011;17335;50.720;7.452;2023-04-24T00:03:17;1.05;;;0.70;;
30553;SDS011;17335;50.720;7.452;2023-04-24T00:05:47;0.80;;;0.63;;
30553;SDS011;17335;50.720;7.452;2023-04-24T00:08:14;0.90;;;0.70;;
30553;SDS011;17335;50.720;7.452;2023-04-24T00:10:41;0.55;;;0.55;;
30553;SDS011;17335;50.720;7.452;2023-04-24T00:13:07;0.82;;;0.70;;
30553;SDS011;17335;50.720;7.452;2023-04-24T00:15:34;1.05;;;0.70;;
30553;SDS011;17335;50.720;7.452;2023-04-24T00:18:01;1.23;;;0.68;;
30553;SDS011;17335;50.720;7.452;2023-04-24T00:20:28;1.05;;;0.50;;
30553;SDS011;17335;50.720;7.452;2023-04-24T00:22:59;0.93;;;0.60;;
30553;SDS011;17335;50.720;7.452;2023-04-24T00:25:26;0.70;;;0.57;;
30553;SDS011;17335;50.720;7.452;2023-04-24T00:27:52;1.67;;;0.70;;
30553;SDS011;17335;50.720;7.452;2023-04-24T00:30:18;0.93;;;0.88;;
30553;SDS011;17335;50.720;7.452;2023-04-24T00:32:45;1.10;;;0.60;;
30553;SDS011;17335;50.720;7.452;2023-04-24T00:35:12;1.77;;;0.80;;
30553;SDS011;17335;50.720;7.452;2023-04-24T00:37:39;1.58;;;0.70;;
30553;SDS011;17335;50.720;7.452;2023-04-24T00:40:06;2.90;;;0.70;;
30553;SDS011;17335;50.720;7.452;2023-04-24T00:42:33;0.85;;;0.70;;
30553;SDS011;17335;50.720;7.452;2023-04-24T00:45:00;3.00;;;1.00;;
30553;SDS011;17335;50.720;7.452;2023-04-24T00:47:29;0.80;;;0.70;;
30553;SDS011;17335;50.720;7.452;2023-04-24T00:49:57;1.17;;;0.63;;
30553;SDS011;17335;50.720;7.452;2023-04-24T00:52:23;0.85;;;0.50;;
30553;SDS011;17335;50.720;7.452;2023-04-24T00:54:51;0.95;;;0.63;;
30553;SDS011;17335;50.720;7.452;2023-04-24T00:57:17;2.00;;;0.75;;
30553;SDS011;17335;50.720;7.452;2023-04-24T00:59:46;1.90;;;0.70;;
30553;SDS011;17335;50.720;7.452;2023-04-24T01:02:12;0.63;;;0.60;;
30553;SDS011;17335;50.720;7.452;2023-04-24T01:04:40;0.68;;;0.50;;
30553;SDS011;17335;50.720;7.452;2023-04-24T01:07:07;0.85;;;0.60;;
30553;SDS011;17335;50.720;7.452;2023-04-24T01:09:37;0.88;;;0.70;;
30553;SDS011;17335;50.720;7.452;2023-04-24T01:12:08;0.50;;;0.50;;
30553;SDS011;17335;50.720;7.452;2023-04-24T01:14:35;1.25;;;0.90;;
30553;SDS011;17335;50.720;7.452;2023-04-24T01:17:02;1.10;;;0.73;;
30553;SDS011;17335;50.720;7.452;2023-04-24T01:19:29;0.40;;;0.40;;
30553;SDS011;17335;50.720;7.452;2023-04-24T01:21:58;1.08;;;0.60;;
30553;SDS011;17335;50.720;7.452;2023-04-24T01:24:28;2.00;;;0.70;;
30553;SDS011;17335;50.720;7.452;2023-04-24T01:26:55;0.90;;;0.60;;
30553;SDS011;17335;50.720;7.452;2023-04-24T01:29:22;0.82;;;0.60;;
30553;SDS011;17335;50.720;7.452;2023-04-24T01:31:48;0.57;;;0.57;;
30553;SDS011;17335;50.720;7.452;2023-04-24T01:34:15;2.30;;;0.60;;
30553;SDS011;17335;50.720;7.452;2023-04-24T01:36:43;0.75;;;0.70;;
30553;SDS011;17335;50.720;7.452;2023-04-24T01:39:11;0.88;;;0.70;;
30553;SDS011;17335;50.720;7.452;2023-04-24T01:41:38;0.50;;;0.50;;
30553;SDS011;17335;50.720;7.452;2023-04-24T01:44:05;0.95;;;0.60;;
30553;SDS011;17335;50.720;7.452;2023-04-24T01:46:32;1.00;;;0.70;;
30553;SDS011;17335;50.720;7.452;2023-04-24T01:49:01;3.80;;;0.73;;
30553;SDS011;17335;50.720;7.452;2023-04-24T01:51:28;3.97;;;0.90;;
30553;SDS011;17335;50.720;7.452;2023-04-24T01:53:54;1.33;;;0.70;;
30553;SDS011;17335;50.720;7.452;2023-04-24T01:56:21;0.60;;;0.55;;
30553;SDS011;17335;50.720;7.452;2023-04-24T01:58:49;2.97;;;0.85;;
30553;SDS011;17335;50.720;7.452;2023-04-24T02:01:18;1.77;;;0.75;;
30553;SDS011;17335;50.720;7.452;2023-04-24T02:03:45;1.63;;;0.80;;
30553;SDS011;17335;50.720;7.452;2023-04-24T02:06:12;1.00;;;0.75;;
30553;SDS011;17335;50.720;7.452;2023-04-24T02:08:39;1.27;;;0.90;;
30553;SDS011;17335;50.720;7.452;2023-04-24T02:11:05;1.77;;;1.10;;
30553;SDS011;17335;50.720;7.452;2023-04-24T02:13:32;3.53;;;1.45;;
30553;SDS011;17335;50.720;7.452;2023-04-24T02:15:58;2.65;;;1.30;;
30553;SDS011;17335;50.720;7.452;2023-04-24T02:18:25;3.25;;;1.63;;
30553;SDS011;17335;50.720;7.452;2023-04-24T02:20:52;2.17;;;1.27;;
30553;SDS011;17335;50.720;7.452;2023-04-24T02:23:18;2.58;;;1.35;;
30553;SDS011;17335;50.720;7.452;2023-04-24T02:25:44;4.10;;;1.90;;
30553;SDS011;17335;50.720;7.452;2023-04-24T02:28:11;4.57;;;2.00;;
30553;SDS011;17335;50.720;7.452;2023-04-24T02:30:38;4.47;;;2.13;;
30553;SDS011;17335;50.720;7.452;2023-04-24T02:33:04;3.05;;;1.65;;
30553;SDS011;17335;50.720;7.452;2023-04-24T02:35:31;5.13;;;2.55;;
30553;SDS011;17335;50.720;7.452;2023-04-24T02:37:58;4.88;;;2.83;;
30553;SDS011;17335;50.720;7.452;2023-04-24T02:40:24;5.65;;;2.25;;
30553;SDS011;17335;50.720;7.452;2023-04-24T02:42:51;4.10;;;2.20;;
30553;SDS011;17335;50.720;7.452;2023-04-24T02:45:18;7.40;;;2.40;;
30553;SDS011;17335;50.720;7.452;2023-04-24T02:47:44;6.75;;;2.60;;
30553;SDS011;17335;50.720;7.452;2023-04-24T02:50:11;3.85;;;2.58;;
30553;SDS011;17335;50.720;7.452;2023-04-24T02:52:37;7.75;;;2.38;;
30553;SDS011;17335;50.720;7.452;2023-04-24T02:55:04;4.97;;;2.22;;
30553;SDS011;17335;50.720;7.452;2023-04-24T02:57:31;6.15;;;2.40;;
30553;SDS011;17335;50.720;7.452;2023-04-24T02:59:58;5.88;;;2.72;;
30553;SDS011;17335;50.720;7.452;2023-04-24T03:02:24;5.78;;;2.90;;
30553;SDS011;17335;50.720;7.452;2023-04-24T03:04:51;9.40;;;2.95;;
30553;SDS011;17335;50.720;7.452;2023-04-24T03:07:19;4.78;;;2.95;;
30553;SDS011;17335;50.720;7.452;2023-04-24T03:09:46;6.97;;;2.83;;
30553;SDS011;17335;50.720;7.452;2023-04-24T03:12:14;4.88;;;2.97;;
30553;SDS011;17335;50.720;7.452;2023-04-24T03:14:40;4.57;;;2.65;;
30553;SDS011;17335;50.720;7.452;2023-04-24T03:17:07;5.82;;;2.90;;
30553;SDS011;17335;50.720;7.452;2023-04-24T03:19:33;4.88;;;2.83;;
30553;SDS011;17335;50.720;7.452;2023-04-24T03:22:01;6.45;;;3.25;;
30553;SDS011;17335;50.720;7.452;2023-04-24T03:24:28;7.55;;;3.13;;
30553;SDS011;17335;50.720;7.452;2023-04-24T03:26:54;4.57;;;2.75;;
30553;SDS011;17335;50.720;7.452;2023-04-24T03:29:23;5.80;;;3.15;;
30553;SDS011;17335;50.720;7.452;2023-04-24T03:31:49;4.72;;;3.00;;
30553;SDS011;17335;50.720;7.452;2023-04-24T03:34:16;4.70;;;2.80;;
30553;SDS011;17335;50.720;7.452;2023-04-24T03:36:42;6.22;;;3.35;;
30553;SDS011;17335;50.720;7.452;2023-04-24T03:39:09;5.40;;;2.88;;
30553;SDS011;17335;50.720;7.452;2023-04-24T03:41:36;4.43;;;2.83;;
30553;SDS011;17335;50.720;7.452;2023-04-24T03:44:03;5.15;;;3.05;;
30553;SDS011;17335;50.720;7.452;2023-04-24T03:46:29;6.18;;;2.97;;
30553;SDS011;17335;50.720;7.452;2023-04-24T03:48:56;6.88;;;3.75;;
30553;SDS011;17335;50.720;7.452;2023-04-24T03:51:22;8.88;;;3.35;;
30553;SDS011;17335;50.720;7.452;2023-04-24T03:53:49;6.20;;;3.45;;
30553;SDS011;17335;50.720;7.452;2023-04-24T03:56:16;8.40;;;3.83;;
30553;SDS011;17335;50.720;7.452;2023-04-24T03:58:42;10.32;;;4.13;;
30553;SDS011;17335;50.720;7.452;2023-04-24T04:01:10;8.05;;;4.28;;
30553;SDS011;17335;50.720;7.452;2023-04-24T04:03:37;6.80;;;3.78;;
30553;SDS011;17335;50.720;7.452;2023-04-24T04:06:04;6.55;;;3.90;;
30553;SDS011;17335;50.720;7.452;2023-04-24T04:08:31;8.93;;;3.95;;
30553;SDS011;17335;50.720;7.452;2023-04-24T04:10:57;7.78;;;4.13;;
30553;SDS011;17335;50.720;7.452;2023-04-24T04:13:24;8.40;;;4.15;;
30553;SDS011;17335;50.720;7.452;2023-04-24T04:15:50;8.55;;;4.05;;
30553;SDS011;17335;50.720;7.452;2023-04-24T04:18:17;8.25;;;4.00;;
30553;SDS011;17335;50.720;7.452;2023-04-24T04:20:45;6.68;;;3.25;;
30553;SDS011;17335;50.720;7.452;2023-04-24T04:23:11;10.93;;;4.07;;
30553;SDS011;17335;50.720;7.452;2023-04-24T04:25:38;9.80;;;4.38;;
30553;SDS011;17335;50.720;7.452;2023-04-24T04:28:04;7.13;;;4.10;;
30553;SDS011;17335;50.720;7.452;2023-04-24T04:30:31;8.80;;;3.78;;
30553;SDS011;17335;50.720;7.452;2023-04-24T04:32:58;8.25;;;3.53;;
30553;SDS011;17335;50.720;7.452;2023-04-24T04:35:26;8.30;;;4.03;;
30553;SDS011;17335;50.720;7.452;2023-04-24T04:37:52;6.85;;;3.55;;
30553;SDS011;17335;50.720;7.452;2023-04-24T04:40:19;7.13;;;3.95;;
30553;SDS011;17335;50.720;7.452;2023-04-24T04:42:45;7.93;;;3.88;;
30553;SDS011;17335;50.720;7.452;2023-04-24T04:45:12;6.72;;;4.05;;
30553;SDS011;17335;50.720;7.452;2023-04-24T04:47:38;7.18;;;3.78;;
30553;SDS011;17335;50.720;7.452;2023-04-24T04:50:06;7.55;;;4.07;;
30553;SDS011;17335;50.720;7.452;2023-04-24T04:52:32;7.57;;;4.35;;
30553;SDS011;17335;50.720;7.452;2023-04-24T04:54:59;8.00;;;4.20;;
30553;SDS011;17335;50.720;7.452;2023-04-24T04:57:26;9.35;;;4.65;;
30553;SDS011;17335;50.720;7.452;2023-04-24T04:59:53;15.43;;;4.13;;
30553;SDS011;17335;50.720;7.452;2023-04-24T05:02:20;7.43;;;4.03;;
30553;SDS011;17335;50.720;7.452;2023-04-24T05:04:46;7.78;;;4.07;;
30553;SDS011;17335;50.720;7.452;2023-04-24T05:07:14;6.70;;;4.13;;
30553;SDS011;17335;50.720;7.452;2023-04-24T05:09:40;9.05;;;3.60;;
30553;SDS011;17335;50.720;7.452;2023-04-24T05:12:07;10.30;;;4.20;;
30553;SDS011;17335;50.720;7.452;2023-04-24T05:14:34;9.80;;;4.50;;
30553;SDS011;17335;50.720;7.452;2023-04-24T05:17:01;11.90;;;4.47;;
30553;SDS011;17335;50.720;7.452;2023-04-24T05:19:27;7.45;;;3.90;;
30553;SDS011;17335;50.720;7.452;2023-04-24T05:21:54;6.93;;;3.78;;
30553;SDS011;17335;50.720;7.452;2023-04-24T05:24:21;7.15;;;3.75;;
30553;SDS011;17335;50.720;7.452;2023-04-24T05:26:47;6.57;;;3.65;;
30553;SDS011;17335;50.720;7.452;2023-04-24T05:29:14;8.15;;;4.53;;
30553;SDS011;17335;50.720;7.452;2023-04-24T05:31:40;5.22;;;3.53;;
30553;SDS011;17335;50.720;7.452;2023-04-24T05:34:07;8.10;;;4.03;;
30553;SDS011;17335;50.720;7.452;2023-04-24T05:36:34;8.98;;;4.20;;
30553;SDS011;17335;50.720;7.452;2023-04-24T05:39:00;7.82;;;4.07;;
30553;SDS011;17335;50.720;7.452;2023-04-24T05:41:27;6.38;;;3.75;;
30553;SDS011;17335;50.720;7.452;2023-04-24T05:43:53;6.75;;;3.80;;
30553;SDS011;17335;50.720;7.452;2023-04-24T05:46:20;7.28;;;4.20;;
30553;SDS011;17335;50.720;7.452;2023-04-24T05:48:46;10.35;;;4.40;;
30553;SDS011;17335;50.720;7.452;2023-04-24T05:51:13;8.23;;;4.28;;
30553;SDS011;17335;50.720;7.452;2023-04-24T05:53:39;8.30;;;4.63;;
30553;SDS011;17335;50.720;7.452;2023-04-24T05:56:06;8.43;;;4.50;;
30553;SDS011;17335;50.720;7.452;2023-04-24T05:58:33;7.65;;;4.32;;
30553;SDS011;17335;50.720;7.452;2023-04-24T06:00:59;6.68;;;4.03;;
30553;SDS011;17335;50.720;7.452;2023-04-24T06:03:27;10.73;;;5.22;;
30553;SDS011;17335;50.720;7.452;2023-04-24T06:05:54;7.40;;;4.18;;
30553;SDS011;17335;50.720;7.452;2023-04-24T06:08:21;8.77;;;4.60;;
30553;SDS011;17335;50.720;7.452;2023-04-24T06:10:47;12.45;;;4.00;;
30553;SDS011;17335;50.720;7.452;2023-04-24T06:13:14;7.07;;;3.78;;
30553;SDS011;17335;50.720;7.452;2023-04-24T06:15:40;8.80;;;4.13;;
30553;SDS011;17335;50.720;7.452;2023-04-24T06:18:07;7.30;;;4.10;;
30553;SDS011;17335;50.720;7.452;2023-04-24T06:20:36;9.18;;;3.78;;
30553;SDS011;17335;50.720;7.452;2023-04-24T06:23:02;7.72;;;3.58;;
30553;SDS011;17335;50.720;7.452;2023-04-24T06:25:29;6.78;;;3.60;;
30553;SDS011;17335;50.720;7.452;2023-04-24T06:27:56;9.63;;;4.78;;
30553;SDS011;17335;50.720;7.452;2023-04-24T06:30:22;11.43;;;4.65;;
30553;SDS011;17335;50.720;7.452;2023-04-24T06:32:49;7.50;;;4.40;;
30553;SDS011;17335;50.720;7.452;2023-04-24T06:35:16;10.27;;;4.05;;
30553;SDS011;17335;50.720;7.452;2023-04-24T06:37:43;10.23;;;4.50;;
30553;SDS011;17335;50.720;7.452;2023-04-24T06:40:09;7.88;;;4.32;;
30553;SDS011;17335;50.720;7.452;2023-04-24T06:42:36;8.43;;;4.60;;
30553;SDS011;17335;50.720;7.452;2023-04-24T06:45:03;8.73;;;4.82;;
30553;SDS011;17335;50.720;7.452;2023-04-24T06:47:31;7.88;;;4.63;;
30553;SDS011;17335;50.720;7.452;2023-04-24T06:49:58;8.90;;;5.25;;
30553;SDS011;17335;50.720;7.452;2023-04-24T06:52:24;12.02;;;4.78;;
30553;SDS011;17335;50.720;7.452;2023-04-24T06:54:51;12.38;;;5.07;;
30553;SDS011;17335;50.720;7.452;2023-04-24T06:57:18;8.45;;;4.53;;
30553;SDS011;17335;50.720;7.452;2023-04-24T06:59:45;11.00;;;4.70;;
30553;SDS011;17335;50.720;7.452;2023-04-24T07:02:12;10.88;;;5.03;;
30553;SDS011;17335;50.720;7.452;2023-04-24T07:04:38;10.73;;;5.15;;
30553;SDS011;17335;50.720;7.452;2023-04-24T07:07:05;13.00;;;5.47;;
30553;SDS011;17335;50.720;7.452;2023-04-24T07:09:33;10.45;;;4.95;;
30553;SDS011;17335;50.720;7.452;2023-04-24T07:12:01;8.60;;;5.07;;
30553;SDS011;17335;50.720;7.452;2023-04-24T07:14:27;11.07;;;5.30;;
30553;SDS011;17335;50.720;7.452;2023-04-24T07:16:54;7.70;;;4.45;;
30553;SDS011;17335;50.720;7.452;2023-04-24T07:19:20;9.35;;;5.10;;
30553;SDS011;17335;50.720;7.452;2023-04-24T07:21:48;8.85;;;4.93;;
30553;SDS011;17335;50.720;7.452;2023-04-24T07:24:14;12.27;;;5.43;;
30553;SDS011;17335;50.720;7.452;2023-04-24T07:26:41;11.98;;;5.05;;
30553;SDS011;17335;50.720;7.452;2023-04-24T07:29:07;8.60;;;4.53;;
30553;SDS011;17335;50.720;7.452;2023-04-24T07:31:35;8.43;;;4.57;;
30553;SDS011;17335;50.720;7.452;2023-04-24T07:34:02;8.63;;;4.72;;
30553;SDS011;17335;50.720;7.452;2023-04-24T07:36:29;6.63;;;4.13;;
30553;SDS011;17335;50.720;7.452;2023-04-24T07:38:55;8.73;;;3.95;;
30553;SDS011;17335;50.720;7.452;2023-04-24T07:41:25;7.78;;;3.80;;
30553;SDS011;17335;50.720;7.452;2023-04-24T07:43:51;9.63;;;4.03;;
30553;SDS011;17335;50.720;7.452;2023-04-24T07:46:19;7.15;;;4.47;;
30553;SDS011;17335;50.720;7.452;2023-04-24T07:48:46;7.50;;;4.05;;
30553;SDS011;17335;50.720;7.452;2023-04-24T07:51:30;7.78;;;3.78;;
30553;SDS011;17335;50.720;7.452;2023-04-24T07:53:58;7.18;;;3.63;;
30553;SDS011;17335;50.720;7.452;2023-04-24T07:56:25;8.27;;;3.72;;
30553;SDS011;17335;50.720;7.452;2023-04-24T07:58:53;6.35;;;3.85;;
30553;SDS011;17335;50.720;7.452;2023-04-24T08:01:19;6.75;;;3.67;;
30553;SDS011;17335;50.720;7.452;2023-04-24T08:03:46;8.73;;;4.15;;
30553;SDS011;17335;50.720;7.452;2023-04-24T08:06:13;8.32;;;3.85;;
30553;SDS011;17335;50.720;7.452;2023-04-24T08:08:39;9.60;;;3.50;;
30553;SDS011;17335;50.720;7.452;2023-04-24T08:11:06;8.85;;;3.42;;
30553;SDS011;17335;50.720;7.452;2023-04-24T08:13:32;6.22;;;2.92;;
30553;SDS011;17335;50.720;7.452;2023-04-24T08:15:59;4.45;;;2.33;;
30553;SDS011;17335;50.720;7.452;2023-04-24T08:18:25;6.03;;;3.25;;
30553;SDS011;17335;50.720;7.452;2023-04-24T08:20:52;5.63;;;2.90;;
30553;SDS011;17335;50.720;7.452;2023-04-24T08:23:19;7.07;;;2.85;;
30553;SDS011;17335;50.720;7.452;2023-04-24T08:25:45;5.00;;;2.58;;
30553;SDS011;17335;50.720;7.452;2023-04-24T08:28:12;5.75;;;2.97;;
30553;SDS011;17335;50.720;7.452;2023-04-24T08:30:42;4.80;;;2.63;;
30553;SDS011;17335;50.720;7.452;2023-04-24T08:33:08;4.10;;;2.28;;
30553;SDS011;17335;50.720;7.452;2023-04-24T08:35:35;3.88;;;2.00;;
30553;SDS011;17335;50.720;7.452;2023-04-24T08:38:01;2.97;;;1.83;;
30553;SDS011;17335;50.720;7.452;2023-04-24T08:40:28;3.17;;;1.80;;
30553;SDS011;17335;50.720;7.452;2023-04-24T08:42:56;3.28;;;1.75;;
30553;SDS011;17335;50.720;7.452;2023-04-24T08:45:24;2.60;;;1.60;;
30553;SDS011;17335;50.720;7.452;2023-04-24T08:47:53;6.55;;;1.50;;
30553;SDS011;17335;50.720;7.452;2023-04-24T08:50:21;4.82;;;1.52;;
30553;SDS011;17335;50.720;7.452;2023-04-24T08:52:51;4.43;;;1.60;;
30553;SDS011;17335;50.720;7.452;2023-04-24T08:55:23;2.47;;;1.40;;
30553;SDS011;17335;50.720;7.452;2023-04-24T08:57:51;2.03;;;1.20;;
30553;SDS011;17335;50.720;7.452;2023-04-24T09:00:19;2.60;;;1.20;;
30553;SDS011;17335;50.720;7.452;2023-04-24T09:02:48;1.95;;;1.15;;
30553;SDS011;17335;50.720;7.452;2023-04-24T09:05:16;2.22;;;1.13;;
30553;SDS011;17335;50.720;7.452;2023-04-24T09:07:45;2.38;;;1.23;;
30553;SDS011;17335;50.720;7.452;2023-04-24T09:10:19;1.73;;;0.98;;
30553;SDS011;17335;50.720;7.452;2023-04-24T09:12:47;3.80;;;1.17;;
30553;SDS011;17335;50.720;7.452;2023-04-24T09:15:17;3.78;;;1.05;;
30553;SDS011;17335;50.720;7.452;2023-04-24T09:17:44;2.08;;;1.08;;
30553;SDS011;17335;50.720;7.452;2023-04-24T09:20:11;2.10;;;1.20;;
30553;SDS011;17335;50.720;7.452;2023-04-24T09:22:38;2.95;;;1.25;;
30553;SDS011;17335;50.720;7.452;2023-04-24T09:25:06;1.88;;;1.27;;
30553;SDS011;17335;50.720;7.452;2023-04-24T09:27:34;1.98;;;1.33;;
30553;SDS011;17335;50.720;7.452;2023-04-24T09:30:01;3.00;;;1.40;;
30553;SDS011;17335;50.720;7.452;2023-04-24T09:32:28;2.97;;;1.60;;
30553;SDS011;17335;50.720;7.452;2023-04-24T09:37:46;3.05;;;1.85;;
30553;SDS011;17335;50.720;7.452;2023-04-24T09:40:14;4.07;;;2.30;;
30553;SDS011;17335;50.720;7.452;2023-04-24T09:42:52;3.78;;;1.70;;
30553;SDS011;17335;50.720;7.452;2023-04-24T09:45:20;3.30;;;2.00;;
30553;SDS011;17335;50.720;7.452;2023-04-24T09:47:46;4.88;;;2.63;;
30553;SDS011;17335;50.720;7.452;2023-04-24T09:50:18;5.88;;;2.15;;
30553;SDS011;17335;50.720;7.452;2023-04-24T09:52:47;4.15;;;2.00;;
30553;SDS011;17335;50.720;7.452;2023-04-24T09:55:22;4.78;;;2.55;;
30553;SDS011;17335;50.720;7.452;2023-04-24T09:57:49;10.18;;;2.97;;
30553;SDS011;17335;50.720;7.452;2023-04-24T10:00:18;5.47;;;2.50;;
30553;SDS011;17335;50.720;7.452;2023-04-24T10:02:51;5.22;;;2.30;;
30553;SDS011;17335;50.720;7.452;2023-04-24T10:05:29;3.63;;;2.10;;
30553;SDS011;17335;50.720;7.452;2023-04-24T10:08:00;4.43;;;2.75;;
30553;SDS011;17335;50.720;7.452;2023-04-24T10:10:41;5.03;;;2.40;;
30553;SDS011;17335;50.720;7.452;2023-04-24T10:13:09;4.32;;;2.47;;
30553;SDS011;17335;50.720;7.452;2023-04-24T10:15:36;7.90;;;2.67;;
30553;SDS011;17335;50.720;7.452;2023-04-24T10:18:04;4.22;;;2.20;;
30553;SDS011;17335;50.720;7.452;2023-04-24T10:20:33;4.50;;;2.53;;
30553;SDS011;17335;50.720;7.452;2023-04-24T10:23:01;6.03;;;2.67;;
30553;SDS011;17335;50.720;7.452;2023-04-24T10:25:30;3.97;;;2.17;;
30553;SDS011;17335;50.720;7.452;2023-04-24T10:27:58;4.82;;;2.70;;
30553;SDS011;17335;50.720;7.452;2023-04-24T10:30:27;4.78;;;2.80;;
30553;SDS011;17335;50.720;7.452;2023-04-24T10:32:55;5.05;;;2.78;;
30553;SDS011;17335;50.720;7.452;2023-04-24T10:35:22;8.07;;;2.42;;
30553;SDS011;17335;50.720;7.452;2023-04-24T10:40:19;4.95;;;2.78;;
30553;SDS011;17335;50.720;7.452;2023-04-24T10:42:54;5.57;;;3.03;;
30553;SDS011;17335;50.720;7.452;2023-04-24T10:45:24;5.07;;;2.90;;
30553;SDS011;17335;50.720;7.452;2023-04-24T10:47:58;7.68;;;2.90;;
30553;SDS011;17335;50.720;7.452;2023-04-24T10:53:21;6.10;;;2.45;;
30553;SDS011;17335;50.720;7.452;2023-04-24T10:55:50;5.75;;;2.53;;
30553;SDS011;17335;50.720;7.452;2023-04-24T10:58:40;5.32;;;2.60;;
30553;SDS011;17335;50.720;7.452;2023-04-24T11:01:27;9.50;;;3.35;;
30553;SDS011;17335;50.720;7.452;2023-04-24T11:03:57;6.53;;;3.00;;
30553;SDS011;17335;50.720;7.452;2023-04-24T11:06:32;6.38;;;3.10;;
30553;SDS011;17335;50.720;7.452;2023-04-24T11:09:02;5.95;;;3.05;;
30553;SDS011;17335;50.720;7.452;2023-04-24T11:11:34;5.55;;;3.05;;
30553;SDS011;17335;50.720;7.452;2023-04-24T11:14:02;5.88;;;3.20;;
30553;SDS011;17335;50.720;7.452;2023-04-24T11:21:41;8.38;;;3.40;;
30553;SDS011;17335;50.720;7.452;2023-04-24T11:35:18;7.40;;;3.58;;
30553;SDS011;17335;50.720;7.452;2023-04-24T11:37:54;9.98;;;3.80;;
30553;SDS011;17335;50.720;7.452;2023-04-24T11:40:40;12.00;;;3.90;;
30553;SDS011;17335;50.720;7.452;2023-04-24T11:43:08;9.68;;;4.30;;
30553;SDS011;17335;50.720;7.452;2023-04-24T11:45:35;9.65;;;4.18;;
30553;SDS011;17335;50.720;7.452;2023-04-24T11:48:02;11.30;;;4.80;;
30553;SDS011;17335;50.720;7.452;2023-04-24T11:50:29;12.48;;;4.80;;
30553;SDS011;17335;50.720;7.452;2023-04-24T11:52:56;12.60;;;4.65;;
30553;SDS011;17335;50.720;7.452;2023-04-24T11:55:23;13.32;;;5.32;;
30553;SDS011;17335;50.720;7.452;2023-04-24T11:57:53;10.50;;;5.57;;
30553;SDS011;17335;50.720;7.452;2023-04-24T12:00:26;14.35;;;5.90;;
30553;SDS011;17335;50.720;7.452;2023-04-24T12:03:08;12.48;;;5.47;;
30553;SDS011;17335;50.720;7.452;2023-04-24T12:05:38;13.85;;;5.68;;
30553;SDS011;17335;50.720;7.452;2023-04-24T12:08:06;11.45;;;5.90;;
30553;SDS011;17335;50.720;7.452;2023-04-24T12:10:33;15.05;;;6.03;;
30553;SDS011;17335;50.720;7.452;2023-04-24T12:13:01;15.73;;;6.03;;
30553;SDS011;17335;50.720;7.452;2023-04-24T12:15:27;16.48;;;6.38;;
30553;SDS011;17335;50.720;7.452;2023-04-24T12:17:55;16.27;;;6.22;;
30553;SDS011;17335;50.720;7.452;2023-04-24T12:20:26;9.85;;;5.22;;
30553;SDS011;17335;50.720;7.452;2023-04-24T12:22:58;10.82;;;5.57;;
30553;SDS011;17335;50.720;7.452;2023-04-24T12:25:30;11.57;;;5.85;;
30553;SDS011;17335;50.720;7.452;2023-04-24T12:30:34;11.02;;;5.95;;
30553;SDS011;17335;50.720;7.452;2023-04-24T12:33:07;11.85;;;5.95;;
30553;SDS011;17335;50.720;7.452;2023-04-24T12:35:34;12.88;;;6.57;;
30553;SDS011;17335;50.720;7.452;2023-04-24T12:38:05;11.27;;;5.78;;
30553;SDS011;17335;50.720;7.452;2023-04-24T12:40:42;15.95;;;5.93;;
30553;SDS011;17335;50.720;7.452;2023-04-24T12:43:17;16.73;;;6.32;;
30553;SDS011;17335;50.720;7.452;2023-04-24T12:45:48;11.95;;;5.63;;
30553;SDS011;17335;50.720;7.452;2023-04-24T12:48:15;13.35;;;5.68;;
30553;SDS011;17335;50.720;7.452;2023-04-24T12:50:42;12.68;;;5.40;;
30553;SDS011;17335;50.720;7.452;2023-04-24T12:53:12;14.05;;;5.85;;
30553;SDS011;17335;50.720;7.452;2023-04-24T12:55:40;10.15;;;5.28;;
30553;SDS011;17335;50.720;7.452;2023-04-24T12:58:06;13.95;;;6.03;;
30553;SDS011;17335;50.720;7.452;2023-04-24T13:00:33;14.85;;;5.85;;
30553;SDS011;17335;50.720;7.452;2023-04-24T13:03:00;12.77;;;5.47;;
30553;SDS011;17335;50.720;7.452;2023-04-24T13:05:27;12.77;;;6.25;;
30553;SDS011;17335;50.720;7.452;2023-04-24T13:07:54;16.45;;;6.18;;
30553;SDS011;17335;50.720;7.452;2023-04-24T13:10:21;14.45;;;6.32;;
30553;SDS011;17335;50.720;7.452;2023-04-24T13:12:47;12.95;;;5.90;;
30553;SDS011;17335;50.720;7.452;2023-04-24T13:15:15;13.63;;;6.25;;
30553;SDS011;17335;50.720;7.452;2023-04-24T13:17:41;14.20;;;6.15;;
30553;SDS011;17335;50.720;7.452;2023-04-24T13:20:08;12.85;;;5.75;;
30553;SDS011;17335;50.720;7.452;2023-04-24T13:22:36;12.13;;;5.70;;
30553;SDS011;17335;50.720;7.452;2023-04-24T13:25:02;16.30;;;5.97;;
30553;SDS011;17335;50.720;7.452;2023-04-24T13:27:32;13.35;;;6.20;;
30553;SDS011;17335;50.720;7.452;2023-04-24T13:29:58;16.95;;;5.75;;
30553;SDS011;17335;50.720;7.452;2023-04-24T13:32:25;19.17;;;5.88;;
30553;SDS011;17335;50.720;7.452;2023-04-24T13:34:52;12.77;;;5.38;;
30553;SDS011;17335;50.720;7.452;2023-04-24T13:37:19;9.70;;;4.88;;
30553;SDS011;17335;50.720;7.452;2023-04-24T13:39:45;15.63;;;5.55;;
30553;SDS011;17335;50.720;7.452;2023-04-24T13:42:12;13.73;;;6.20;;
30553;SDS011;17335;50.720;7.452;2023-04-24T13:44:39;10.77;;;5.28;;
30553;SDS011;17335;50.720;7.452;2023-04-24T13:47:06;13.07;;;5.18;;
30553;SDS011;17335;50.720;7.452;2023-04-24T13:49:33;11.60;;;5.95;;
30553;SDS011;17335;50.720;7.452;2023-04-24T13:52:00;15.73;;;6.00;;
30553;SDS011;17335;50.720;7.452;2023-04-24T13:54:26;12.60;;;5.95;;
30553;SDS011;17335;50.720;7.452;2023-04-24T13:56:56;12.07;;;5.95;;
30553;SDS011;17335;50.720;7.452;2023-04-24T13:59:23;14.38;;;6.30;;
30553;SDS011;17335;50.720;7.452;2023-04-24T14:01:50;15.70;;;5.90;;
30553;SDS011;17335;50.720;7.452;2023-04-24T14:04:17;10.73;;;4.85;;
30553;SDS011;17335;50.720;7.452;2023-04-24T14:06:44;13.70;;;4.75;;
30553;SDS011;17335;50.720;7.452;2023-04-24T14:09:10;12.45;;;4.43;;
30553;SDS011;17335;50.720;7.452;2023-04-24T14:11:37;9.90;;;4.13;;
30553;SDS011;17335;50.720;7.452;2023-04-24T14:14:04;10.18;;;4.70;;
30553;SDS011;17335;50.720;7.452;2023-04-24T14:16:31;9.15;;;4.15;;
30553;SDS011;17335;50.720;7.452;2023-04-24T14:18:58;9.95;;;4.15;;
30553;SDS011;17335;50.720;7.452;2023-04-24T14:21:24;12.00;;;4.63;;
30553;SDS011;17335;50.720;7.452;2023-04-24T14:23:52;8.38;;;4.72;;
30553;SDS011;17335;50.720;7.452;2023-04-24T14:26:19;13.00;;;5.22;;
30553;SDS011;17335;50.720;7.452;2023-04-24T14:28:46;13.00;;;5.20;;
30553;SDS011;17335;50.720;7.452;2023-04-24T14:31:12;11.15;;;4.65;;
30553;SDS011;17335;50.720;7.452;2023-04-24T14:33:39;11.18;;;4.55;;
30553;SDS011;17335;50.720;7.452;2023-04-24T14:36:06;14.35;;;4.97;;
30553;SDS011;17335;50.720;7.452;2023-04-24T14:38:33;13.60;;;5.10;;
30553;SDS011;17335;50.720;7.452;2023-04-24T14:41:00;11.45;;;5.15;;
30553;SDS011;17335;50.720;7.452;2023-04-24T14:43:33;11.45;;;5.28;;
30553;SDS011;17335;50.720;7.452;2023-04-24T14:46:02;10.73;;;5.43;;
30553;SDS011;17335;50.720;7.452;2023-04-24T14:48:29;14.10;;;4.63;;
30553;SDS011;17335;50.720;7.452;2023-04-24T14:50:56;11.80;;;5.00;;
30553;SDS011;17335;50.720;7.452;2023-04-24T14:53:23;11.13;;;4.93;;
30553;SDS011;17335;50.720;7.452;2023-04-24T14:55:52;11.98;;;5.30;;
30553;SDS011;17335;50.720;7.452;2023-04-24T14:58:19;11.02;;;5.20;;
30553;SDS011;17335;50.720;7.452;2023-04-24T15:00:46;13.60;;;5.70;;
30553;SDS011;17335;50.720;7.452;2023-04-24T15:03:12;14.88;;;5.43;;
30553;SDS011;17335;50.720;7.452;2023-04-24T15:05:40;10.98;;;5.15;;
30553;SDS011;17335;50.720;7.452;2023-04-24T15:08:06;11.23;;;5.03;;
30553;SDS011;17335;50.720;7.452;2023-04-24T15:10:33;11.07;;;5.70;;
30553;SDS011;17335;50.720;7.452;2023-04-24T15:13:01;14.45;;;5.38;;